Airport ID:KO69
Update Time (UTC):18/09/2020 17:52
Wind Speed (Knots):8
Wind Direction (Magnetic):270
Temperature (°C):21
Dew Point (°C):16
Humidity (%):72
Altimeter (inHg):30.02
Density Altitude (Feet):
Visibility:10+
Clouds (Hundreds of feet):FEW017
Present Weather:
METAR:METAR KO69 181750Z AUTO VRB06G12KT 10SM FEW017 21/16 A3002 RMK A01

The data displayed is for advisory purposes only and is not to be used for flight planning or operations.